createdAt,value
2019-01-22T00:00:34.797Z,66.76
2019-01-22T00:01:42.545Z,66.74
2019-01-22T00:02:50.537Z,66.61
2019-01-22T00:03:58.492Z,66.54
2019-01-22T00:05:09.201Z,66.46
2019-01-22T00:06:20.407Z,66.38
2019-01-22T00:07:28.964Z,66.30
2019-01-22T00:08:37.198Z,66.22
2019-01-22T00:09:48.244Z,66.22
2019-01-22T00:10:56.842Z,66.24
2019-01-22T00:12:04.760Z,66.29
2019-01-22T00:13:13.572Z,66.31
2019-01-22T00:14:21.439Z,66.30
2019-01-22T00:15:32.174Z,66.37
2019-01-22T00:16:40.571Z,66.33
2019-01-22T00:17:48.411Z,66.26
2019-01-22T00:18:57.066Z,66.24
2019-01-22T00:20:08.391Z,66.24
2019-01-22T00:21:16.270Z,66.23
2019-01-22T00:22:24.061Z,66.21
2019-01-22T00:23:32.309Z,66.18
2019-01-22T00:24:39.968Z,66.16
2019-01-22T00:25:47.944Z,66.07
2019-01-22T00:26:55.939Z,66.03
2019-01-22T00:28:04.398Z,66.12
2019-01-22T00:29:44.797Z,66.26
2019-01-22T00:30:52.774Z,66.29
2019-01-22T00:32:00.466Z,66.31
2019-01-22T00:33:08.560Z,66.28
2019-01-22T00:34:16.464Z,66.23
2019-01-22T00:35:27.541Z,66.16
2019-01-22T00:36:39.820Z,66.07
2019-01-22T00:37:48.553Z,65.90
2019-01-22T00:38:57.558Z,65.73
2019-01-22T00:40:07.875Z,65.58
2019-01-22T00:41:15.565Z,65.52
2019-01-22T00:42:23.428Z,65.54
2019-01-22T00:43:32.348Z,65.55
2019-01-22T00:44:40.192Z,65.54
2019-01-22T00:45:48.198Z,65.57
2019-01-22T00:46:57.877Z,65.55
2019-01-22T00:48:06.948Z,65.53
2019-01-22T00:49:15.081Z,65.50
2019-01-22T00:50:23.888Z,65.56
2019-01-22T00:51:31.789Z,65.63
2019-01-22T00:52:39.943Z,65.69
2019-01-22T00:53:47.629Z,65.72
2019-01-22T00:54:55.665Z,65.71
2019-01-22T00:56:06.373Z,65.68
2019-01-22T00:57:14.568Z,65.57
2019-01-22T00:58:24.014Z,65.43
2019-01-22T00:59:32.374Z,65.33
2019-01-22T01:00:41.124Z,65.26
2019-01-22T01:01:49.566Z,65.26
2019-01-22T01:02:58.198Z,65.23
2019-01-22T01:04:06.471Z,65.38
2019-01-22T01:05:14.837Z,65.60
2019-01-22T01:06:23.434Z,65.82
2019-01-22T01:07:31.377Z,65.99
2019-01-22T01:08:39.651Z,66.08
2019-01-22T01:09:47.582Z,66.04
2019-01-22T01:10:56.191Z,66.01
2019-01-22T01:12:03.959Z,65.97
2019-01-22T01:13:12.023Z,65.98
2019-01-22T01:14:20.134Z,65.95
2019-01-22T01:15:28.015Z,65.90
2019-01-22T01:16:35.706Z,65.86
2019-01-22T01:17:43.588Z,65.84
2019-01-22T01:18:51.914Z,65.78
2019-01-22T01:20:00.706Z,65.72
2019-01-22T01:21:08.494Z,65.57
2019-01-22T01:22:16.076Z,65.45
2019-01-22T01:23:23.970Z,65.36
2019-01-22T01:24:31.763Z,65.25
2019-01-22T01:25:41.001Z,65.21
2019-01-22T01:26:49.329Z,65.16
2019-01-22T01:27:57.219Z,65.30
2019-01-22T01:29:04.901Z,65.37
2019-01-22T01:30:16.487Z,65.33
2019-01-22T01:31:24.187Z,65.41
2019-01-22T01:32:31.821Z,65.47
2019-01-22T01:33:39.520Z,65.43
2019-01-22T01:34:47.518Z,65.41
2019-01-22T01:35:56.308Z,65.35
2019-01-22T01:37:04.310Z,65.33
2019-01-22T01:38:12.088Z,65.30
2019-01-22T01:39:20.202Z,65.33
2019-01-22T01:40:28.106Z,65.44
2019-01-22T01:41:36.387Z,65.53
2019-01-22T01:42:44.643Z,65.71
2019-01-22T01:43:52.719Z,65.86
2019-01-22T01:45:00.493Z,65.98
2019-01-22T01:46:08.031Z,66.03
2019-01-22T01:47:15.942Z,65.98
2019-01-22T01:48:23.544Z,65.94
2019-01-22T01:49:31.163Z,65.92
2019-01-22T01:50:38.906Z,65.85
2019-01-22T01:51:46.507Z,65.89
2019-01-22T01:52:54.496Z,65.88
2019-01-22T01:54:02.113Z,65.85
2019-01-22T01:55:12.106Z,65.83
2019-01-22T01:56:19.666Z,65.82
2019-01-22T01:57:27.130Z,65.77
2019-01-22T01:58:34.789Z,65.72
2019-01-22T01:59:42.778Z,65.65
2019-01-22T02:00:50.595Z,65.53
2019-01-22T02:01:58.276Z,65.43
2019-01-22T02:03:06.247Z,65.36
2019-01-22T02:04:14.137Z,65.31
2019-01-22T02:05:22.133Z,65.31
2019-01-22T02:06:29.850Z,65.31
2019-01-22T02:07:37.699Z,65.25
2019-01-22T02:08:45.318Z,65.19
2019-01-22T02:09:53.129Z,65.09
2019-01-22T02:11:00.769Z,65.01
2019-01-22T02:12:08.411Z,64.94
2019-01-22T02:13:17.067Z,64.84
2019-01-22T02:14:28.956Z,64.78
2019-01-22T02:15:56.818Z,64.75
2019-01-22T02:17:16.168Z,64.65
2019-01-22T02:18:46.701Z,64.70
2019-01-22T02:20:05.131Z,64.75
2019-01-22T02:21:50.026Z,64.68
2019-01-22T02:23:20.032Z,64.69
2019-01-22T02:24:35.639Z,64.47
2019-01-22T02:25:53.592Z,64.34
2019-01-22T02:27:33.038Z,64.34
2019-01-22T02:29:03.457Z,64.42
2019-01-22T02:30:38.422Z,64.46
2019-01-22T02:32:19.330Z,64.51
2019-01-22T02:33:55.707Z,64.58
2019-01-22T02:35:14.701Z,64.57
2019-01-22T02:36:35.946Z,64.54
2019-01-22T02:38:12.563Z,64.53
2019-01-22T02:39:43.051Z,64.48
2019-01-22T02:41:10.315Z,64.33
2019-01-22T02:42:28.419Z,64.15
2019-01-22T02:44:14.399Z,64.07
2019-01-22T02:45:55.666Z,64.00
2019-01-22T02:47:25.986Z,63.86
2019-01-22T02:48:49.994Z,63.80
2019-01-22T02:50:30.083Z,63.82
2019-01-22T02:52:03.759Z,63.83
2019-01-22T02:53:24.548Z,63.93
2019-01-22T02:54:37.176Z,64.03
2019-01-22T02:56:07.107Z,64.12
2019-01-22T02:57:53.962Z,64.18
2019-01-22T02:59:41.424Z,64.23
2019-01-22T03:01:19.286Z,64.25
2019-01-22T03:03:06.895Z,64.26
2019-01-22T03:04:25.341Z,64.39
2019-01-22T03:05:50.485Z,64.51
2019-01-22T03:07:21.636Z,64.50
2019-01-22T03:08:47.905Z,64.54
2019-01-22T03:10:12.641Z,64.58
2019-01-22T03:11:43.585Z,64.58
2019-01-22T03:13:02.547Z,64.52
2019-01-22T03:14:27.675Z,64.43
2019-01-22T03:16:05.769Z,64.44
2019-01-22T03:17:42.410Z,64.42
2019-01-22T03:19:06.484Z,64.41
2019-01-22T03:20:30.871Z,64.37
2019-01-22T03:21:52.234Z,64.32
2019-01-22T03:23:16.922Z,64.34
2019-01-22T03:24:55.128Z,64.43
2019-01-22T03:26:13.424Z,64.45
2019-01-22T03:27:28.634Z,64.43
2019-01-22T03:28:53.339Z,64.47
2019-01-22T03:30:23.466Z,64.51
2019-01-22T03:31:50.741Z,64.55
2019-01-22T03:33:19.791Z,64.51
2019-01-22T03:34:50.551Z,64.50
2019-01-22T03:36:11.903Z,64.42
2019-01-22T03:37:53.246Z,64.40
2019-01-22T03:39:17.890Z,64.39
2019-01-22T03:40:33.415Z,64.40
2019-01-22T03:42:23.971Z,64.33
2019-01-22T03:43:56.999Z,64.29
2019-01-22T03:45:31.295Z,64.14
2019-01-22T03:47:01.869Z,64.12
2019-01-22T03:48:23.337Z,64.02
2019-01-22T03:49:35.944Z,63.92
2019-01-22T03:51:07.901Z,63.93
2019-01-22T03:52:20.345Z,63.88
2019-01-22T03:53:38.173Z,63.90
2019-01-22T03:54:56.250Z,63.92
2019-01-22T03:56:20.332Z,63.92
2019-01-22T03:57:35.810Z,63.94
2019-01-22T03:58:43.959Z,63.98
2019-01-22T03:59:52.387Z,64.01
2019-01-22T04:01:04.528Z,63.98
2019-01-22T04:02:12.339Z,63.94
2019-01-22T04:03:20.265Z,63.90
2019-01-22T04:04:28.289Z,64.01
2019-01-22T04:05:36.007Z,64.05
2019-01-22T04:06:44.003Z,64.13
2019-01-22T04:07:51.953Z,64.14
2019-01-22T04:09:02.592Z,64.07
2019-01-22T04:10:18.380Z,64.05
2019-01-22T04:11:28.853Z,64.03
2019-01-22T04:12:37.177Z,63.98
2019-01-22T04:13:44.981Z,63.97
2019-01-22T04:14:52.969Z,63.99
2019-01-22T04:16:00.921Z,63.92
2019-01-22T04:17:08.844Z,63.89
2019-01-22T04:18:17.095Z,63.92
2019-01-22T04:19:24.994Z,63.90
2019-01-22T04:20:33.067Z,63.89
2019-01-22T04:21:40.925Z,63.92
2019-01-22T04:22:50.354Z,63.96
2019-01-22T04:24:36.427Z,63.97
2019-01-22T04:26:05.448Z,63.95
2019-01-22T04:27:40.458Z,63.88
2019-01-22T04:28:58.548Z,63.82
2019-01-22T04:30:23.400Z,63.89
2019-01-22T04:31:39.050Z,63.98
2019-01-22T04:32:56.721Z,64.01
2019-01-22T04:34:11.965Z,63.98
2019-01-22T04:35:33.525Z,63.91
2019-01-22T04:37:04.296Z,63.90
2019-01-22T04:38:31.912Z,63.82
2019-01-22T04:40:00.383Z,63.69
2019-01-22T04:41:34.645Z,63.61
2019-01-22T04:43:15.838Z,63.58
2019-01-22T04:44:47.949Z,63.51
2019-01-22T04:46:27.680Z,63.46
2019-01-22T04:47:43.312Z,63.50
2019-01-22T04:49:10.718Z,63.59
2019-01-22T04:50:47.090Z,63.67
2019-01-22T04:52:15.030Z,63.69
2019-01-22T04:53:51.380Z,63.69
2019-01-22T04:55:23.777Z,63.65
2019-01-22T04:57:03.481Z,63.54
2019-01-22T04:58:16.359Z,63.38
2019-01-22T04:59:55.851Z,63.23
2019-01-22T05:01:35.891Z,63.21
2019-01-22T05:03:00.851Z,63.14
2019-01-22T05:04:28.548Z,63.13
2019-01-22T05:05:53.185Z,63.14
2019-01-22T05:07:11.674Z,63.16
2019-01-22T05:08:39.302Z,63.23
2019-01-22T05:10:30.669Z,63.32
2019-01-22T05:13:16.907Z,63.30
2019-01-22T05:14:41.802Z,63.32
2019-01-22T05:16:09.936Z,63.29
2019-01-22T05:17:48.035Z,63.30
2019-01-22T05:19:06.630Z,63.28
2019-01-22T05:20:22.078Z,63.36
2019-01-22T05:22:14.476Z,63.44
2019-01-22T05:23:32.153Z,63.51
2019-01-22T05:24:57.018Z,63.58
2019-01-22T05:26:15.705Z,63.56
2019-01-22T05:27:53.343Z,63.54
2019-01-22T05:29:29.602Z,63.59
2019-01-22T05:30:51.026Z,63.61
2019-01-22T05:32:03.448Z,63.60
2019-01-22T05:33:46.287Z,63.60
2019-01-22T05:35:34.708Z,63.54
2019-01-22T05:37:05.766Z,63.50
2019-01-22T05:38:18.389Z,63.49
2019-01-22T05:39:36.355Z,63.45
2019-01-22T05:41:20.307Z,63.44
2019-01-22T05:42:47.438Z,63.47
2019-01-22T05:44:33.327Z,63.53
2019-01-22T05:45:54.531Z,63.62
2019-01-22T05:47:24.071Z,63.65
2019-01-22T05:48:39.591Z,63.60
2019-01-22T05:49:54.864Z,63.54
2019-01-22T05:51:17.809Z,63.53
2019-01-22T05:52:42.377Z,63.52
2019-01-22T05:54:24.988Z,63.46
2019-01-22T05:55:45.078Z,63.57
2019-01-22T05:56:57.582Z,63.71
2019-01-22T05:58:12.886Z,63.80
2019-01-22T05:59:39.966Z,63.92
2019-01-22T06:00:56.015Z,64.05
2019-01-22T06:02:14.079Z,64.15
2019-01-22T06:03:35.633Z,64.12
2019-01-22T06:04:57.235Z,64.04
2019-01-22T06:06:39.619Z,63.95
2019-01-22T06:08:10.090Z,63.88
2019-01-22T06:09:28.524Z,63.79
2019-01-22T06:11:09.587Z,63.82
2019-01-22T06:12:36.165Z,63.80
2019-01-22T06:13:55.064Z,63.79
2019-01-22T06:15:25.851Z,63.79
2019-01-22T06:16:59.287Z,63.80
2019-01-22T06:18:39.404Z,63.81
2019-01-22T06:20:09.343Z,63.78
2019-01-22T06:21:41.994Z,63.82
2019-01-22T06:22:58.051Z,63.81
2019-01-22T06:24:33.312Z,63.78
2019-01-22T06:25:52.868Z,63.77
2019-01-22T06:27:14.244Z,63.74
2019-01-22T06:28:32.744Z,63.71
2019-01-22T06:30:31.354Z,63.66
2019-01-22T06:31:55.901Z,63.63
2019-01-22T06:33:17.319Z,63.55
2019-01-22T06:34:53.988Z,63.44
2019-01-22T06:36:09.763Z,63.37
2019-01-22T06:37:34.578Z,63.38
2019-01-22T06:38:52.997Z,63.38
2019-01-22T06:40:14.753Z,63.34
2019-01-22T06:41:36.628Z,63.40
2019-01-22T06:43:06.057Z,63.42
2019-01-22T06:44:29.892Z,63.42
2019-01-22T06:46:01.340Z,63.38
2019-01-22T06:47:20.079Z,63.31
2019-01-22T06:48:59.793Z,63.21
2019-01-22T06:50:36.739Z,63.23
2019-01-22T06:52:17.036Z,63.20
2019-01-22T06:53:36.147Z,63.14
2019-01-22T06:55:00.934Z,63.13
2019-01-22T06:56:25.519Z,63.11
2019-01-22T06:57:49.900Z,63.14
2019-01-22T06:59:36.880Z,63.19
2019-01-22T07:01:02.109Z,63.18
2019-01-22T07:02:20.718Z,63.14
2019-01-22T07:04:10.603Z,63.09
2019-01-22T07:05:38.122Z,63.12
2019-01-22T07:07:12.080Z,63.21
2019-01-22T07:08:43.492Z,63.24
2019-01-22T07:10:27.034Z,63.26
2019-01-22T07:11:40.053Z,63.23
2019-01-22T07:13:01.750Z,63.18
2019-01-22T07:14:29.251Z,63.37
2019-01-22T07:15:47.850Z,63.52
2019-01-22T07:17:14.253Z,63.56
2019-01-22T07:18:42.103Z,63.52
2019-01-22T07:20:09.822Z,63.45
2019-01-22T07:21:48.445Z,63.38
2019-01-22T07:23:09.823Z,63.35
2019-01-22T07:24:46.863Z,63.25
2019-01-22T07:26:07.182Z,63.22
2019-01-22T07:27:38.029Z,63.27
2019-01-22T07:29:06.759Z,63.21
2019-01-22T07:30:31.454Z,63.18
2019-01-22T07:31:44.354Z,63.12
2019-01-22T07:33:22.833Z,63.11
2019-01-22T07:34:50.288Z,63.09
2019-01-22T07:36:24.030Z,62.99
2019-01-22T07:37:39.392Z,62.96
2019-01-22T07:39:26.937Z,62.85
2019-01-22T07:40:42.275Z,62.88
2019-01-22T07:42:12.902Z,62.92
2019-01-22T07:43:54.681Z,62.95
2019-01-22T07:45:28.080Z,62.94
2019-01-22T07:47:13.621Z,62.83
2019-01-22T07:48:26.512Z,62.71
2019-01-22T07:49:54.555Z,62.51
2019-01-22T07:51:10.717Z,62.41
2019-01-22T07:52:44.707Z,62.33
2019-01-22T07:54:08.586Z,62.30
2019-01-22T07:55:33.259Z,62.30
2019-01-22T07:57:10.581Z,62.28
2019-01-22T07:58:41.385Z,62.22
2019-01-22T07:59:57.154Z,62.17
2019-01-22T08:01:35.269Z,62.21
2019-01-22T08:02:53.492Z,62.16
2019-01-22T08:04:13.264Z,62.13
2019-01-22T08:05:36.156Z,62.08
2019-01-22T08:06:56.725Z,61.94
2019-01-22T08:08:24.146Z,61.65
2019-01-22T08:10:17.990Z,61.44
2019-01-22T08:11:48.435Z,61.59
2019-01-22T08:13:26.802Z,61.59
2019-01-22T08:14:48.762Z,61.62
2019-01-22T08:16:26.632Z,61.47
2019-01-22T08:17:42.401Z,61.48
2019-01-22T08:19:25.149Z,61.34
2019-01-22T08:21:02.532Z,61.24
2019-01-22T08:22:27.335Z,60.94
2019-01-22T08:24:13.548Z,61.01
2019-01-22T08:25:46.734Z,60.99
2019-01-22T08:27:12.090Z,60.64
2019-01-22T08:28:36.589Z,60.76
2019-01-22T08:29:50.971Z,60.75
2019-01-22T08:31:23.220Z,60.49
2019-01-22T08:33:00.449Z,60.53
2019-01-22T08:34:38.251Z,60.43
2019-01-22T08:36:03.406Z,60.35
2019-01-22T08:37:30.805Z,60.30
2019-01-22T08:38:49.336Z,60.13
2019-01-22T08:40:32.909Z,60.21
2019-01-22T08:41:51.486Z,60.27
2019-01-22T08:43:19.412Z,60.13
2019-01-22T08:44:53.274Z,60.06
2019-01-22T08:46:40.771Z,59.92
2019-01-22T08:48:08.494Z,59.91
2019-01-22T08:49:39.179Z,59.71
2019-01-22T08:51:09.805Z,59.59
2019-01-22T08:52:31.386Z,59.57
2019-01-22T08:54:04.805Z,59.62
2019-01-22T08:55:55.112Z,59.58
2019-01-22T08:57:28.962Z,59.51
2019-01-22T08:58:44.054Z,59.35
2019-01-22T09:00:05.772Z,59.29
2019-01-22T09:01:39.056Z,59.11
2019-01-22T09:03:13.262Z,59.14
2019-01-22T09:04:51.268Z,59.27
2019-01-22T09:06:15.439Z,59.16
2019-01-22T09:08:10.016Z,59.19
2019-01-22T09:09:37.533Z,59.22
2019-01-22T09:11:19.095Z,59.08
2019-01-22T09:12:46.371Z,58.72
2019-01-22T09:14:13.126Z,57.27
2019-01-22T09:15:49.889Z,56.63
2019-01-22T09:17:43.217Z,55.77
2019-01-22T09:19:12.332Z,55.54
2019-01-22T09:20:44.522Z,55.06
2019-01-22T09:22:38.056Z,55.24
2019-01-22T09:23:56.271Z,55.29
2019-01-22T09:25:14.857Z,55.50
2019-01-22T09:26:30.570Z,55.78
2019-01-22T09:28:28.914Z,56.10
2019-01-22T09:29:44.380Z,56.44
2019-01-22T09:30:59.508Z,56.88
2019-01-22T09:32:26.420Z,57.26
2019-01-22T09:33:57.298Z,57.53
2019-01-22T09:35:34.256Z,57.80
2019-01-22T09:36:49.544Z,57.99
2019-01-22T09:37:58.069Z,58.16
2019-01-22T09:39:10.299Z,58.21
2019-01-22T09:40:18.143Z,58.31
2019-01-22T09:41:26.645Z,58.47
2019-01-22T09:42:34.709Z,58.61
2019-01-22T09:43:46.581Z,58.76
2019-01-22T09:44:54.547Z,58.92
2019-01-22T09:46:02.002Z,59.11
2019-01-22T09:47:10.096Z,59.30
2019-01-22T09:48:17.807Z,59.42
2019-01-22T09:49:25.724Z,59.50
2019-01-22T09:50:34.288Z,59.50
2019-01-22T09:51:42.372Z,59.42
2019-01-22T09:52:50.479Z,59.48
2019-01-22T09:53:58.956Z,59.52
2019-01-22T09:55:11.530Z,59.58
2019-01-22T09:56:19.489Z,59.63
2019-01-22T09:57:27.176Z,59.75
2019-01-22T09:58:34.983Z,59.87
2019-01-22T09:59:42.957Z,59.88
2019-01-22T10:00:50.962Z,59.87
2019-01-22T10:01:58.593Z,59.82
2019-01-22T10:03:06.955Z,59.79
2019-01-22T10:04:14.669Z,59.71
2019-01-22T10:05:22.432Z,59.77
2019-01-22T10:06:30.696Z,59.76
2019-01-22T10:07:38.678Z,59.62
2019-01-22T10:08:46.506Z,59.63
2019-01-22T10:09:54.744Z,59.60
2019-01-22T10:11:02.672Z,59.62
2019-01-22T10:12:10.817Z,59.54
2019-01-22T10:13:18.688Z,59.47
2019-01-22T10:14:26.512Z,59.31
2019-01-22T10:15:34.261Z,59.28
2019-01-22T10:16:41.970Z,59.31
2019-01-22T10:17:50.331Z,59.43
2019-01-22T10:18:58.587Z,59.42
2019-01-22T10:20:11.149Z,59.27
2019-01-22T10:21:19.053Z,59.30
2019-01-22T10:22:26.673Z,59.38
2019-01-22T10:23:34.642Z,59.52
2019-01-22T10:24:42.475Z,59.55
2019-01-22T10:25:50.270Z,59.50
2019-01-22T10:26:58.202Z,59.41
2019-01-22T10:28:06.401Z,59.30
2019-01-22T10:29:14.430Z,59.27
2019-01-22T10:30:25.262Z,59.43
2019-01-22T10:31:33.147Z,59.51
2019-01-22T10:32:40.825Z,59.47
2019-01-22T10:33:48.549Z,59.44
2019-01-22T10:34:56.256Z,59.51
2019-01-22T10:36:04.211Z,59.60
2019-01-22T10:37:11.977Z,59.77
2019-01-22T10:38:19.753Z,59.94
2019-01-22T10:39:27.688Z,60.00
2019-01-22T10:40:35.431Z,59.98
2019-01-22T10:41:43.382Z,59.93
2019-01-22T10:42:51.371Z,59.76
2019-01-22T10:43:59.147Z,59.69
2019-01-22T10:45:11.660Z,59.57
2019-01-22T10:46:19.356Z,59.55
2019-01-22T10:47:27.544Z,59.51
2019-01-22T10:48:35.472Z,59.36
2019-01-22T10:49:43.275Z,59.31
2019-01-22T10:50:51.329Z,59.33
2019-01-22T10:51:59.017Z,59.26
2019-01-22T10:53:06.788Z,59.22
2019-01-22T10:54:14.473Z,59.21
2019-01-22T10:55:22.373Z,59.20
2019-01-22T10:56:30.048Z,59.10
2019-01-22T10:57:37.844Z,59.14
2019-01-22T10:58:45.614Z,59.10
2019-01-22T10:59:53.206Z,59.07
2019-01-22T11:01:01.317Z,59.10
2019-01-22T11:02:09.146Z,59.08
2019-01-22T11:03:17.221Z,59.13
2019-01-22T11:04:25.464Z,59.14
2019-01-22T11:05:36.664Z,59.08
2019-01-22T11:06:44.398Z,58.93
2019-01-22T11:07:52.360Z,58.87
2019-01-22T11:09:00.081Z,58.81
2019-01-22T11:10:09.196Z,58.78
2019-01-22T11:11:20.230Z,58.79
2019-01-22T11:12:28.022Z,58.69
2019-01-22T11:13:35.719Z,58.59
2019-01-22T11:14:43.536Z,58.49
2019-01-22T11:15:51.546Z,58.40
2019-01-22T11:16:59.486Z,58.25
2019-01-22T11:18:07.438Z,58.02
2019-01-22T11:19:15.388Z,57.95
2019-01-22T11:20:29.894Z,57.86
2019-01-22T11:21:38.119Z,57.86
2019-01-22T11:22:45.817Z,57.76
2019-01-22T11:23:53.599Z,57.65
2019-01-22T11:25:01.205Z,57.47
2019-01-22T11:26:08.958Z,57.32
2019-01-22T11:27:16.904Z,57.26
2019-01-22T11:28:24.772Z,57.20
2019-01-22T11:29:32.548Z,57.17
2019-01-22T11:30:40.471Z,57.08
2019-01-22T11:31:48.375Z,57.01
2019-01-22T11:32:59.238Z,56.99
2019-01-22T11:34:07.602Z,56.97
2019-01-22T11:35:18.652Z,56.91
2019-01-22T11:36:26.331Z,56.91
2019-01-22T11:37:33.783Z,57.04
2019-01-22T11:38:41.763Z,57.33
2019-01-22T11:39:49.430Z,57.50
2019-01-22T11:40:56.943Z,57.71
2019-01-22T11:42:04.972Z,57.89
2019-01-22T11:43:12.574Z,57.96
2019-01-22T11:44:20.504Z,57.90
2019-01-22T11:45:29.679Z,57.75
2019-01-22T11:46:37.596Z,57.52
2019-01-22T11:47:45.111Z,57.22
2019-01-22T11:48:53.043Z,57.09
2019-01-22T11:50:00.827Z,57.00
2019-01-22T11:51:08.336Z,56.87
2019-01-22T11:52:16.309Z,56.72
2019-01-22T11:53:25.577Z,56.68
2019-01-22T11:54:33.494Z,56.67
2019-01-22T11:55:41.343Z,56.84
2019-01-22T11:56:48.963Z,57.15
2019-01-22T11:57:56.900Z,57.40
2019-01-22T11:59:04.840Z,57.45
2019-01-22T12:00:26.702Z,57.41
2019-01-22T12:01:35.110Z,57.50
2019-01-22T12:02:42.439Z,57.48
2019-01-22T12:03:50.429Z,57.39
2019-01-22T12:04:58.345Z,57.50
2019-01-22T12:06:06.599Z,57.57
2019-01-22T12:07:14.223Z,57.59
2019-01-22T12:08:22.288Z,57.58
2019-01-22T12:09:30.252Z,57.54
2019-01-22T12:10:37.858Z,57.43
2019-01-22T12:11:45.716Z,57.33
2019-01-22T12:12:53.667Z,57.11
2019-01-22T12:14:01.721Z,56.90
2019-01-22T12:15:16.355Z,56.81
2019-01-22T12:16:23.983Z,56.72
2019-01-22T12:17:31.849Z,56.60
2019-01-22T12:18:39.772Z,56.52
2019-01-22T12:19:48.224Z,56.53
2019-01-22T12:20:56.222Z,56.54
2019-01-22T12:22:04.065Z,56.44
2019-01-22T12:23:11.695Z,56.37
2019-01-22T12:24:19.994Z,56.33
2019-01-22T12:25:27.748Z,56.29
2019-01-22T12:26:35.749Z,56.30
2019-01-22T12:27:43.738Z,56.26
2019-01-22T12:28:51.434Z,56.25
2019-01-22T12:29:59.488Z,56.23
2019-01-22T12:31:07.168Z,56.20
2019-01-22T12:32:15.652Z,56.15
2019-01-22T12:33:23.395Z,56.23
2019-01-22T12:34:32.108Z,56.41
2019-01-22T12:35:39.960Z,56.52
2019-01-22T12:36:48.137Z,56.51
2019-01-22T12:37:56.777Z,56.17
2019-01-22T12:39:06.908Z,56.37
2019-01-22T12:40:18.649Z,56.46
2019-01-22T12:41:26.822Z,56.64
2019-01-22T12:42:34.612Z,56.68
2019-01-22T12:43:42.661Z,56.75
2019-01-22T12:44:50.779Z,56.72
2019-01-22T12:45:58.698Z,56.68
2019-01-22T12:47:06.560Z,56.51
2019-01-22T12:48:14.357Z,56.53
2019-01-22T12:49:22.249Z,56.69
2019-01-22T12:50:30.188Z,56.77
2019-01-22T12:51:40.322Z,56.85
2019-01-22T12:52:48.513Z,56.88
2019-01-22T12:53:57.125Z,56.89
2019-01-22T12:55:06.356Z,56.93
2019-01-22T12:56:14.205Z,56.93
2019-01-22T12:57:22.300Z,56.91
2019-01-22T12:58:30.502Z,56.82
2019-01-22T12:59:38.274Z,56.76
2019-01-22T13:00:46.488Z,56.66
2019-01-22T13:01:54.809Z,56.59
2019-01-22T13:03:02.830Z,56.40
2019-01-22T13:04:10.835Z,56.13
2019-01-22T13:05:23.317Z,55.84
2019-01-22T13:06:31.058Z,55.73
2019-01-22T13:07:39.178Z,55.66
2019-01-22T13:08:47.219Z,55.69
2019-01-22T13:09:54.803Z,55.89
2019-01-22T13:11:03.188Z,56.05
2019-01-22T13:12:11.443Z,56.23
2019-01-22T13:13:20.521Z,56.41
2019-01-22T13:14:28.984Z,56.46
2019-01-22T13:15:36.954Z,56.51
2019-01-22T13:16:44.915Z,56.60
2019-01-22T13:17:52.685Z,56.78
2019-01-22T13:19:00.766Z,56.99
2019-01-22T13:20:18.417Z,57.22
2019-01-22T13:21:27.010Z,57.37
2019-01-22T13:22:36.855Z,57.36
2019-01-22T13:23:44.818Z,57.35
2019-01-22T13:24:52.704Z,57.30
2019-01-22T13:26:00.874Z,57.20
2019-01-22T13:27:08.664Z,57.08
2019-01-22T13:28:16.457Z,57.05
2019-01-22T13:29:25.639Z,57.09
2019-01-22T13:30:35.830Z,57.25
2019-01-22T13:31:45.345Z,57.52
2019-01-22T13:32:54.215Z,57.63
2019-01-22T13:34:02.404Z,57.75
2019-01-22T13:35:10.638Z,57.81
2019-01-22T13:36:18.317Z,57.87
2019-01-22T13:37:26.582Z,57.95
2019-01-22T13:38:34.715Z,58.01
2019-01-22T13:39:42.611Z,58.07
2019-01-22T13:40:52.266Z,58.15
2019-01-22T13:42:00.055Z,58.31
2019-01-22T13:43:08.596Z,58.43
2019-01-22T13:44:16.608Z,58.53
2019-01-22T13:45:37.221Z,58.59
2019-01-22T13:46:45.032Z,58.69
2019-01-22T13:47:54.522Z,58.79
2019-01-22T13:49:02.845Z,58.85
2019-01-22T13:50:18.201Z,58.96
2019-01-22T13:51:25.909Z,59.09
2019-01-22T13:52:33.974Z,59.17
2019-01-22T13:53:41.859Z,59.32
2019-01-22T13:54:49.987Z,59.46
2019-01-22T13:55:57.827Z,59.60
2019-01-22T13:57:05.846Z,59.74
2019-01-22T13:58:13.938Z,59.85
2019-01-22T13:59:21.737Z,59.91
2019-01-22T14:00:30.626Z,59.90
2019-01-22T14:01:38.689Z,60.01
2019-01-22T14:02:46.630Z,59.98
2019-01-22T14:03:54.554Z,60.04
2019-01-22T14:05:02.623Z,60.15
2019-01-22T14:06:10.583Z,60.23
2019-01-22T14:07:18.657Z,60.32
2019-01-22T14:08:26.532Z,60.48
2019-01-22T14:09:34.337Z,60.54
2019-01-22T14:10:42.108Z,60.79
2019-01-22T14:11:50.070Z,60.94
2019-01-22T14:12:58.181Z,61.16
2019-01-22T14:14:06.195Z,61.19
2019-01-22T14:15:29.958Z,61.32
2019-01-22T14:16:37.695Z,61.49
2019-01-22T14:17:45.473Z,61.66
2019-01-22T14:18:53.361Z,61.57
2019-01-22T14:20:01.694Z,61.54
2019-01-22T14:21:09.744Z,61.43
2019-01-22T14:22:18.091Z,61.37
2019-01-22T14:23:26.489Z,61.37
2019-01-22T14:24:34.242Z,61.35
2019-01-22T14:25:41.875Z,61.52
2019-01-22T14:26:50.182Z,61.52
2019-01-22T14:27:58.186Z,61.66
2019-01-22T14:29:06.720Z,61.88
2019-01-22T14:30:22.012Z,62.14
2019-01-22T14:31:32.087Z,62.09
2019-01-22T14:32:39.444Z,62.12
2019-01-22T14:33:47.562Z,62.11
2019-01-22T14:34:55.644Z,62.00
2019-01-22T14:36:03.602Z,62.04
2019-01-22T14:37:11.393Z,61.96
2019-01-22T14:38:19.329Z,61.97
2019-01-22T14:39:27.583Z,61.99
2019-01-22T14:40:35.495Z,61.92
2019-01-22T14:41:43.401Z,61.87
2019-01-22T14:42:51.759Z,61.85
2019-01-22T14:43:59.758Z,61.92
2019-01-22T14:45:17.391Z,61.92
2019-01-22T14:46:25.271Z,61.98
2019-01-22T14:47:35.095Z,61.92
2019-01-22T14:48:43.137Z,61.90
2019-01-22T14:49:51.914Z,61.92
2019-01-22T14:51:00.396Z,62.01
2019-01-22T14:52:09.589Z,62.21
2019-01-22T14:53:17.344Z,62.41
2019-01-22T14:54:25.647Z,62.56
2019-01-22T14:55:33.869Z,62.67
2019-01-22T14:56:42.656Z,62.74
2019-01-22T14:57:50.852Z,62.84
2019-01-22T14:58:59.043Z,63.04
2019-01-22T15:00:15.498Z,63.19
2019-01-22T15:01:23.800Z,63.41
2019-01-22T15:02:32.144Z,63.57
2019-01-22T15:03:41.454Z,63.99
2019-01-22T15:04:50.080Z,63.80
2019-01-22T15:05:57.766Z,63.81
2019-01-22T15:07:05.494Z,63.72
2019-01-22T15:08:13.991Z,63.73
2019-01-22T15:09:21.749Z,63.73
2019-01-22T15:10:29.442Z,63.72
2019-01-22T15:11:37.242Z,63.87
2019-01-22T15:12:46.834Z,63.80
2019-01-22T15:13:55.584Z,63.88
2019-01-22T15:15:03.766Z,63.86
2019-01-22T15:16:12.405Z,64.03
2019-01-22T15:17:21.044Z,64.24
2019-01-22T15:18:29.181Z,64.38
2019-01-22T15:19:37.001Z,64.44
2019-01-22T15:20:45.021Z,64.67
2019-01-22T15:21:54.124Z,64.93
2019-01-22T15:23:02.599Z,65.10
2019-01-22T15:24:10.814Z,65.18
2019-01-22T15:25:18.796Z,65.13
2019-01-22T15:26:26.813Z,65.25
2019-01-22T15:27:36.108Z,65.08
2019-01-22T15:28:45.563Z,65.08
2019-01-22T15:29:55.593Z,65.01
2019-01-22T15:31:03.909Z,65.14
2019-01-22T15:32:11.707Z,65.26
2019-01-22T15:33:20.044Z,65.36
2019-01-22T15:34:28.547Z,65.38
2019-01-22T15:35:36.709Z,65.49
2019-01-22T15:36:45.422Z,65.63
2019-01-22T15:37:54.224Z,65.64
2019-01-22T15:39:02.780Z,65.73
2019-01-22T15:40:16.548Z,65.82
2019-01-22T15:41:25.169Z,65.89
2019-01-22T15:42:34.025Z,65.91
2019-01-22T15:43:42.358Z,66.08
2019-01-22T15:44:50.803Z,66.33
2019-01-22T15:45:59.041Z,66.37
2019-01-22T15:47:07.199Z,66.37
2019-01-22T15:48:15.497Z,66.35
2019-01-22T15:49:24.698Z,66.20
2019-01-22T15:50:33.332Z,66.21
2019-01-22T15:51:42.007Z,66.07
2019-01-22T15:52:50.501Z,66.00
2019-01-22T15:53:58.648Z,66.02
2019-01-22T15:55:14.266Z,65.95
2019-01-22T15:56:22.733Z,65.88
2019-01-22T15:57:31.731Z,65.80
2019-01-22T15:58:41.329Z,65.71
2019-01-22T15:59:49.518Z,65.67
2019-01-22T16:00:57.976Z,65.67
2019-01-22T16:02:06.168Z,65.55
2019-01-22T16:03:14.780Z,65.50
2019-01-22T16:04:22.911Z,65.47
2019-01-22T16:05:30.978Z,65.45
2019-01-22T16:06:39.133Z,65.39
2019-01-22T16:07:47.399Z,65.39
2019-01-22T16:08:55.869Z,65.35
2019-01-22T16:10:04.675Z,65.50
2019-01-22T16:11:13.655Z,65.60
2019-01-22T16:12:22.316Z,65.51
2019-01-22T16:13:30.876Z,65.60
2019-01-22T16:14:39.539Z,65.65
2019-01-22T16:15:48.110Z,65.57
2019-01-22T16:16:56.656Z,65.68
2019-01-22T16:18:05.387Z,65.78
2019-01-22T16:19:14.125Z,65.72